Historyczne dane pomiarowe

Dodano dane terminowe – wersja testowa.

Dane z okresu 1951-2019

Wersja bazy: 1.34 [2019-03-16, lista zmian], aktualizacja planowana na 2019-04-15

Dane meteo z obszaru Polski uzyskane na podstawie danych udostępnionych przez Instytut Meteorologii i Gospodarki Wodnej – Państwowy Instytut Badawczy.

 

Wybierz Datę:    

       

TemperaturaWilgotnośćWiatrCiśnienieOpadyŚniegCzas trwania zjawisk
 Stacja t tx tn tng RH VA  wxwx mslp ppp RRR   cm mm wxwxwxwxwxwxwx
1999-08-14 16.1 18.2 13.3- 75.5- 5.3 3.3---- 0.0------------
1999-08-13 16.3 19.4 13.8- 90.0- 7.3 6.7---- 26.8------------
1999-08-12 17.9 22.1 14.5- 78.5- 6.0 4.7---- 0.0------------
1999-08-11 18.5 20.7 16.7- 95.8- 5.7 2.0---- 20.3------------
1999-08-10 20.2 23.3 17.3- 83.3- 6.3 3.0---- 8.0------------
1999-08-09 22.3 27.8 19.1- 77.5- 4.7 2.7---- 0.0------------
1999-08-08 19.9 21.4 17.7- 91.5- 6.3 5.7---- 0.9------------
1999-08-07 22.0 27.1 19.3- 83.0- 3.3 4.3---- 0.2------------
1999-08-06 23.0 25.7 20.5- 61.5- 4.0 1.7---- 0.0------------
1999-08-05 20.3 23.6 16.0- 72.5- 2.3 2.3---- 0.0------------
1999-08-04 20.2 23.3 16.1- 72.8- 1.7 2.3---- 0.0------------
1999-08-03 19.8 22.7 16.8- 83.0- 1.7 2.7---- 0.0------------
1999-08-02 20.3 22.2 17.1- 70.5- 0.7 3.3---- 0.0------------
1999-08-01 20.2 22.6 17.1- 75.0- 1.3 3.0---- 0.0------------
1999-07-31 19.4 21.9 16.0- 84.8- 1.7 2.7---- 0.0------------
1999-07-30 19.0 22.1 14.9- 79.5- 1.0 2.0---- 0.0------------
1999-07-29 18.8 21.6 15.1- 75.3- 0.7 3.0---- 0.0------------
1999-07-28 17.3 19.7 14.0- 76.8- 2.0 3.0---- 0.0------------
1999-07-27 16.3 19.0 12.6- 71.0- 3.3 3.0---- 0.0------------
1999-07-26 18.5 22.6 16.6- 78.5- 5.7 2.7---- 0.0------------
1999-07-25 20.7 24.7 17.0- 78.3- 4.7 3.0---- 6.6------------
1999-07-24 18.4 21.4 15.3- 78.0- 6.0 4.7---- 0.0------------
1999-07-23 18.1 22.0 15.1- 77.0- 5.7 2.7---- 6.0------------
1999-07-22 18.9 22.3 16.2- 63.8- 4.7 4.7---- 0.0------------
1999-07-21 22.5 26.5 19.8- 74.8- 4.3 4.0---- 4.3------------
1999-07-20 22.1 27.0 17.7- 78.3- 2.0 4.0---- 2.0------------
1999-07-19 19.4 21.3 16.3- 81.5- 3.7 3.0---- 0.0------------
1999-07-18 20.1 25.7 16.2- 80.3- 4.7 3.3---- 0.0------------
1999-07-17 18.0 21.7 14.6- 76.5- 5.3 3.7---- 4.5------------
1999-07-16 17.7 20.7 14.2- 69.0- 3.3 3.3---- 0.2------------
1999-07-15 17.6 19.8 16.1- 82.8- 6.7 4.0---- 2.2------------
1999-07-14 21.1 26.1 19.3- 83.0- 7.0 3.7---- 1.5------------
1999-07-13 22.9 26.4 19.8- 73.8- 6.0 3.7---- 0.0------------
1999-07-12 21.4 23.7 17.6- 81.8- 2.7 2.7---- 0.0------------
1999-07-11 20.4 23.6 16.1- 81.3- 0.3 2.7---- 0.0------------
1999-07-10 18.7 20.4 15.6- 77.8- 0.0 4.7---- 0.0------------
1999-07-09 17.6 19.1 16.5- 77.8- 1.7 6.3---- 0.0------------
1999-07-08 18.4 19.3 17.1- 86.5- 6.3 5.0---- 0.0------------
1999-07-07 18.4 21.6 16.2- 81.5- 7.0 4.0---- 0.0------------
1999-07-06 22.8 29.1 18.4- 75.0- 5.7 3.3---- 3.0------------
1999-07-05 23.3 29.3 17.7- 79.5- 2.3 4.0---- 0.0------------
1999-07-04 22.0 28.4 17.5- 74.3- 6.3 3.7---- 0.0------------
1999-07-03 18.4 21.1 16.0- 82.8- 3.0 4.0---- 0.4------------
1999-07-02 17.0 18.9 14.7- 85.5- 5.3 2.7---- 0.0------------
1999-07-01 19.1 22.1 17.6- 87.0- 6.0 2.7---- 1.6------------
1999-06-30 18.9 21.5 15.7- 82.5- 3.7 3.0---- 0.0------------
1999-06-29 18.0 23.0 15.1- 80.8- 4.0 3.3---- 0.0------------
1999-06-28 20.0 23.6 16.2- 81.0- 3.0 4.0---- 12.0------------
1999-06-27 17.4 22.6 13.2- 84.0- 4.0 4.7---- 0.0------------
1999-06-26 14.0 17.9 10.0- 78.5- 5.0 2.7---- 0.8------------
1999-06-25 13.7 15.1 12.1- 82.8- 6.3 2.0---- 0.0------------
1999-06-24 14.0 16.2 11.6- 86.0- 7.0 3.0---- 3.5------------
1999-06-23 12.5 14.5 10.3- 87.3- 7.7 4.7---- 0.2------------
1999-06-22 13.4 14.7 12.2- 81.5- 8.0 7.3---- 11.0------------
1999-06-21 17.7 23.0 14.2- 78.5- 6.3 4.3---- 7.4------------
1999-06-20 19.5 23.9 15.2- 65.5- 6.0 3.0---- 0.0------------
1999-06-19 18.4 21.3 15.8- 91.3- 6.0 3.3---- 0.3------------
1999-06-18 16.9 19.2 14.1- 80.0- 5.3 2.7---- 0.0------------
1999-06-17 16.2 18.6 13.1- 76.5- 4.0 2.0---- 0.0------------
1999-06-16 15.9 18.1 12.6- 79.8- 3.3 2.3---- 0.0------------
233.7 ms

 

Źródłem pochodzenia danych jest Instytut Meteorologii i Gospodarki Wodnej – Państwowy Instytut Badawczy. Dane Instytutu Meteorologii i Gospodarki Wodnej – Państwowego Instytutu Badawczego zostały przetworzone.

Dane źródłowe można odnaleźć na stronie https://dane.imgw.pl